Time;durP1;ratioP1;P1;durP2;ratioP2;P2;SDS_P1;SDS_P2;PMS_P1;PMS_P2;Temp;Humidity;BMP_temperature;BMP_pressure;BME280_temperature;BME280_humidity;BME280_pressure;Samples;Min_cycle;Max_cycle;Signal;HPM_P1;HPM_P2
2022/06/04 00:02:21;;;;;;;6.50;2.20;;;;;;;16.71;55.15;100414.14;106220;1265;23118;-55
2022/06/04 00:04:53;;;;;;;6.70;2.20;;;;;;;16.70;55.35;100411.59;106195;1265;25080;-53
2022/06/04 00:07:25;;;;;;;6.50;2.30;;;;;;;16.66;55.19;100412.42;106328;1265;22468;-54
2022/06/04 00:15:34;;;;;;;6.30;2.20;;;;;;;16.61;55.59;100401.57;106162;1265;22528;-55
2022/06/04 00:18:06;;;;;;;7.50;2.30;;;;;;;16.60;55.55;100396.96;106306;1265;24224;-55
2022/06/04 00:20:38;;;;;;;7.50;2.00;;;;;;;16.59;55.65;100389.43;106344;1265;25319;-54
2022/06/04 00:23:11;;;;;;;8.20;2.50;;;;;;;16.57;55.73;100385.95;106335;1265;24283;-54
2022/06/04 00:25:45;;;;;;;7.60;2.10;;;;;;;16.55;55.83;100374.94;106411;1265;22545;-55
2022/06/04 00:28:19;;;;;;;5.60;1.70;;;;;;;16.53;55.85;100371.52;106387;1265;26509;-56
2022/06/04 00:30:52;;;;;;;9.80;2.60;;;;;;;16.51;55.98;100362.60;106346;1265;22546;-55
2022/06/04 00:33:24;;;;;;;8.30;2.20;;;;;;;16.48;56.15;100357.06;106516;1265;25519;-54
2022/06/04 00:35:58;;;;;;;6.20;2.00;;;;;;;16.45;56.27;100354.51;106437;1265;22520;-56
2022/06/04 00:38:32;;;;;;;8.60;2.50;;;;;;;16.42;56.28;100354.27;106296;1265;22551;-57
2022/06/04 00:41:15;;;;;;;9.70;2.70;;;;;;;16.39;56.46;100355.85;106388;1265;26163;-57
2022/06/04 00:44:06;;;;;;;9.70;2.10;;;;;;;16.35;56.69;100353.85;106070;1265;24205;-54
2022/06/04 00:47:03;;;;;;;10.20;2.30;;;;;;;16.31;56.63;100351.98;106547;1265;22515;-54
2022/06/04 00:49:35;;;;;;;8.90;2.00;;;;;;;16.29;56.87;100350.87;106202;1265;26624;-54
2022/06/04 00:52:11;;;;;;;8.60;2.50;;;;;;;16.25;57.03;100348.65;106292;1265;23010;-55
2022/06/04 00:54:43;;;;;;;6.90;2.30;;;;;;;16.23;56.99;100344.36;106361;1265;22525;-54
2022/06/04 00:57:38;;;;;;;8.60;2.10;;;;;;;16.22;56.99;100342.02;106096;1265;22536;-56
2022/06/04 01:00:15;;;;;;;7.00;2.50;;;;;;;16.18;57.17;100339.92;106285;1265;23107;-57
2022/06/04 01:03:13;;;;;;;9.90;2.20;;;;;;;16.15;57.11;100333.58;106278;1265;22519;-57
2022/06/04 01:05:57;;;;;;;14.40;2.90;;;;;;;16.14;57.22;100332.96;106119;1265;22521;-56
2022/06/04 01:08:46;;;;;;;9.30;2.20;;;;;;;16.12;57.44;100329.73;106119;1265;24273;-54
2022/06/04 01:11:34;;;;;;;8.10;2.40;;;;;;;16.10;57.58;100328.01;106356;1265;22544;-55
2022/06/04 01:14:16;;;;;;;7.20;2.40;;;;;;;16.06;57.62;100322.95;106102;1265;24272;-55
2022/06/04 01:17:00;;;;;;;8.90;2.70;;;;;;;16.04;57.76;100323.30;106244;1265;22525;-54
2022/06/04 01:19:52;;;;;;;10.50;2.70;;;;;;;16.02;57.59;100323.72;106316;1265;24211;-54
2022/06/04 01:22:42;;;;;;;11.10;3.00;;;;;;;16.01;57.83;100324.95;106134;1265;22519;-55
2022/06/04 01:25:38;;;;;;;13.60;2.50;;;;;;;15.98;57.94;100319.48;106208;1265;25649;-56
2022/06/04 01:28:12;;;;;;;10.00;3.00;;;;;;;15.96;57.88;100316.15;106420;1265;24267;-56
2022/06/04 01:30:47;;;;;;;10.10;3.60;;;;;;;15.96;58.05;100319.22;106227;1268;22540;-55
2022/06/04 01:33:24;;;;;;;8.40;2.30;;;;;;;15.93;58.12;100312.62;106294;1265;22564;-54
2022/06/04 01:36:01;;;;;;;11.20;2.60;;;;;;;15.93;58.11;100308.89;106155;1265;22540;-55
2022/06/04 01:38:40;;;;;;;8.90;2.70;;;;;;;15.90;58.31;100312.06;106354;1265;22531;-57
2022/06/04 01:41:16;;;;;;;8.40;2.60;;;;;;;15.87;58.11;100310.79;106307;1265;25388;-57
2022/06/04 01:43:52;;;;;;;8.70;2.60;;;;;;;15.85;58.32;100307.47;106534;1265;25306;-57
2022/06/04 01:46:33;;;;;;;8.40;2.40;;;;;;;15.84;58.36;100306.91;106328;1264;22674;-56
2022/06/04 01:49:09;;;;;;;8.90;3.10;;;;;;;15.83;58.41;100306.09;106155;1265;22531;-56
2022/06/04 01:51:41;;;;;;;7.20;2.50;;;;;;;15.82;58.42;100305.94;106468;1265;25470;-55
2022/06/04 01:54:19;;;;;;;8.50;2.80;;;;;;;15.81;58.60;100309.46;106292;1265;22516;-56
2022/06/04 01:56:55;;;;;;;6.50;2.20;;;;;;;15.79;58.70;100312.74;106440;1265;25390;-57
2022/06/04 01:59:31;;;;;;;6.60;2.60;;;;;;;15.78;58.88;100312.03;106370;1265;22519;-57
2022/06/04 02:02:08;;;;;;;9.70;2.80;;;;;;;15.77;59.07;100310.65;106296;1265;25237;-54
2022/06/04 02:04:44;;;;;;;7.60;2.60;;;;;;;15.74;59.25;100311.83;106104;1265;22974;-55
2022/06/04 02:07:34;;;;;;;7.40;2.50;;;;;;;15.70;59.20;100315.05;106114;1265;24405;-57
2022/06/04 02:10:11;;;;;;;6.40;2.50;;;;;;;15.66;59.67;100324.32;106152;1265;22540;-55
2022/06/04 02:12:47;;;;;;;8.20;2.80;;;;;;;15.63;59.81;100334.51;106537;1265;22564;-56
2022/06/04 02:15:22;;;;;;;10.00;3.00;;;;;;;15.59;59.97;100341.36;106281;1265;24311;-56
2022/06/04 02:17:57;;;;;;;6.90;2.30;;;;;;;15.58;59.84;100339.46;106405;1265;22668;-58
2022/06/04 02:20:30;;;;;;;11.30;3.40;;;;;;;15.58;60.04;100336.13;106184;1265;24362;-57
2022/06/04 02:23:03;;;;;;;9.90;2.60;;;;;;;15.59;60.08;100333.68;106195;1265;22567;-54
2022/06/04 02:25:35;;;;;;;13.00;2.60;;;;;;;15.59;60.24;100337.73;106253;1265;22520;-54
2022/06/04 02:28:10;;;;;;;7.40;3.10;;;;;;;15.58;60.36;100343.20;106362;1265;24319;-56
2022/06/04 02:30:51;;;;;;;9.50;2.70;;;;;;;15.57;60.47;100351.59;106150;1268;22518;-55
2022/06/04 02:33:35;;;;;;;9.20;3.00;;;;;;;15.57;60.33;100345.86;106274;1265;22854;-57
2022/06/04 02:36:12;;;;;;;14.20;3.50;;;;;;;15.59;60.69;100335.53;106287;1265;22515;-55
2022/06/04 02:38:50;;;;;;;8.70;2.50;;;;;;;15.62;60.66;100319.71;106239;1265;22613;-54
2022/06/04 02:41:26;;;;;;;10.10;3.10;;;;;;;15.64;60.76;100318.14;106299;1265;23058;-57
2022/06/04 02:44:07;;;;;;;10.20;3.40;;;;;;;15.66;60.97;100320.13;106428;1268;24369;-56
2022/06/04 02:46:41;;;;;;;13.00;3.60;;;;;;;15.67;61.30;100318.38;106403;1265;24225;-55
2022/06/04 02:49:17;;;;;;;10.10;3.30;;;;;;;15.68;61.34;100313.88;106113;1265;22577;-55
2022/06/04 02:51:55;;;;;;;9.50;3.20;;;;;;;15.70;61.47;100310.45;106148;1265;22508;-54
2022/06/04 02:54:32;;;;;;;11.10;3.40;;;;;;;15.72;61.89;100301.55;106200;1265;25250;-53
2022/06/04 02:57:06;;;;;;;10.80;3.50;;;;;;;15.71;62.43;100301.49;106158;1265;23078;-57
2022/06/04 02:59:40;;;;;;;10.40;3.40;;;;;;;15.71;63.21;100305.38;106359;1263;24283;-57
2022/06/04 03:02:15;;;;;;;11.90;3.80;;;;;;;15.69;63.33;100313.23;106321;1265;22515;-54
2022/06/04 03:04:50;;;;;;;9.90;4.20;;;;;;;15.65;63.54;100318.59;106301;1265;24325;-58
2022/06/04 03:07:24;;;;;;;8.10;3.00;;;;;;;15.55;64.25;100323.55;106429;1265;25336;-56
2022/06/04 03:10:03;;;;;;;13.50;4.70;;;;;;;15.40;64.34;100322.09;106309;1265;25658;-55
2022/06/04 03:12:34;;;;;;;9.80;3.60;;;;;;;15.32;64.53;100323.15;106221;1265;25247;-54
2022/06/04 03:15:11;;;;;;;10.20;3.80;;;;;;;15.34;65.20;100323.01;106151;1265;22534;-57
2022/06/04 03:17:46;;;;;;;11.00;4.20;;;;;;;15.37;65.59;100325.81;106269;1263;25256;-56
2022/06/04 03:20:21;;;;;;;10.60;3.70;;;;;;;15.38;65.90;100328.63;106107;1265;22527;-56
2022/06/04 03:22:53;;;;;;;9.70;4.10;;;;;;;15.38;66.17;100324.85;106204;1265;22561;-57
2022/06/04 03:25:25;;;;;;;10.40;3.60;;;;;;;15.41;66.24;100321.94;106354;1265;22579;-59
2022/06/04 03:27:56;;;;;;;9.30;3.80;;;;;;;15.43;66.42;100324.71;106441;1265;25280;-58
2022/06/04 03:30:28;;;;;;;12.80;4.80;;;;;;;15.46;66.90;100324.27;106144;1265;25362;-58
2022/06/04 03:32:59;;;;;;;11.20;3.90;;;;;;;15.48;66.58;100320.17;106284;1265;22533;-58
2022/06/04 03:35:31;;;;;;;11.50;4.10;;;;;;;15.50;66.95;100316.08;106438;1265;26369;-56
2022/06/04 03:38:02;;;;;;;9.40;3.50;;;;;;;15.49;66.89;100319.86;106366;1265;24328;-56
2022/06/04 03:40:34;;;;;;;11.50;4.20;;;;;;;15.48;67.08;100322.27;106386;1265;24227;-55
2022/06/04 03:43:07;;;;;;;12.40;3.80;;;;;;;15.47;67.72;100320.79;106246;1265;22979;-57
2022/06/04 03:45:39;;;;;;;11.50;4.70;;;;;;;15.44;67.43;100329.68;106194;1265;22533;-54
2022/06/04 03:48:11;;;;;;;11.10;3.80;;;;;;;15.45;67.83;100338.75;106458;1265;25360;-54
2022/06/04 03:50:42;;;;;;;11.90;4.90;;;;;;;15.47;67.95;100342.17;106188;1265;25289;-56
2022/06/04 03:53:14;;;;;;;10.60;4.70;;;;;;;15.50;68.75;100339.25;106133;1265;22763;-56
2022/06/04 03:55:46;;;;;;;10.30;4.10;;;;;;;15.51;68.73;100338.34;106131;1265;26203;-56
2022/06/04 03:58:18;;;;;;;10.90;4.00;;;;;;;15.53;68.80;100333.64;106409;1265;22534;-58
2022/06/04 04:00:50;;;;;;;12.20;4.50;;;;;;;15.57;68.51;100333.94;106278;1265;22518;-59
2022/06/04 04:03:25;;;;;;;11.00;4.30;;;;;;;15.59;69.00;100333.42;106348;1264;25296;-57
2022/06/04 04:05:57;;;;;;;9.80;4.10;;;;;;;15.61;69.34;100331.07;106156;1265;22551;-57
2022/06/04 04:08:29;;;;;;;9.50;4.00;;;;;;;15.61;69.24;100326.92;106231;1265;24234;-58
2022/06/04 04:11:00;;;;;;;11.10;3.70;;;;;;;15.63;69.05;100322.98;106112;1265;22558;-56
2022/06/04 04:13:32;;;;;;;10.00;3.40;;;;;;;15.65;68.99;100321.05;106206;1265;25316;-60
2022/06/04 04:16:05;;;;;;;9.70;3.20;;;;;;;15.62;69.17;100327.54;106215;1265;22464;-58
2022/06/04 04:18:36;;;;;;;11.60;4.20;;;;;;;15.55;69.30;100325.55;106269;1265;22521;-59
2022/06/04 04:21:11;;;;;;;11.50;4.60;;;;;;;15.53;69.31;100334.55;106068;1265;23240;-58
2022/06/04 04:23:44;;;;;;;9.30;4.40;;;;;;;15.54;69.59;100340.03;106168;1265;22579;-55
2022/06/04 04:26:17;;;;;;;9.00;3.90;;;;;;;15.55;69.50;100340.17;106059;1265;25803;-56
2022/06/04 04:28:49;;;;;;;12.80;5.60;;;;;;;15.56;69.78;100340.74;106229;1265;25249;-60
2022/06/04 04:31:21;;;;;;;10.60;3.80;;;;;;;15.56;70.45;100342.99;106076;1265;22518;-60
2022/06/04 04:33:53;;;;;;;12.60;4.70;;;;;;;15.53;70.74;100340.48;106142;1267;24234;-58
2022/06/04 04:36:30;;;;;;;12.30;4.20;;;;;;;15.52;71.01;100340.13;106169;1265;26502;-55
2022/06/04 04:39:02;;;;;;;13.50;5.10;;;;;;;15.53;70.97;100335.93;106109;1265;25350;-59
2022/06/04 04:41:33;;;;;;;10.80;4.10;;;;;;;15.56;71.10;100332.15;106109;1265;26507;-59
2022/06/04 04:44:05;;;;;;;10.40;4.40;;;;;;;15.57;71.27;100332.71;106166;1265;25556;-59
2022/06/04 04:46:37;;;;;;;12.80;4.90;;;;;;;15.57;71.32;100334.60;106183;1265;22538;-61
2022/06/04 04:49:09;;;;;;;20.50;8.90;;;;;;;15.57;72.04;100344.74;106246;1265;25314;-60
2022/06/04 04:51:41;;;;;;;20.20;10.90;;;;;;;15.56;72.23;100356.21;106315;1265;24078;-60
2022/06/04 04:54:13;;;;;;;14.10;6.20;;;;;;;15.54;72.54;100369.23;106070;1265;22959;-59
2022/06/04 04:56:45;;;;;;;13.90;4.90;;;;;;;15.50;72.81;100392.21;106186;1265;25314;-59
2022/06/04 04:59:16;;;;;;;9.90;4.90;;;;;;;15.46;72.80;100382.08;106260;1265;25311;-58
2022/06/04 05:01:48;;;;;;;13.40;5.30;;;;;;;15.44;73.39;100371.84;106236;1268;25123;-56
2022/06/04 05:04:20;;;;;;;11.40;4.70;;;;;;;15.41;73.73;100375.54;106094;1265;26508;-58
2022/06/04 05:06:52;;;;;;;12.40;5.90;;;;;;;15.36;73.74;100389.13;106202;1268;25247;-61
2022/06/04 05:09:23;;;;;;;14.00;5.70;;;;;;;15.37;74.09;100386.58;106113;1265;25355;-60
2022/06/04 05:11:55;;;;;;;12.30;5.80;;;;;;;15.39;74.35;100383.77;106202;1268;22534;-59
2022/06/04 05:14:27;;;;;;;11.70;5.90;;;;;;;15.39;74.77;100394.61;106321;1268;24603;-58
2022/06/04 05:17:00;;;;;;;11.40;5.20;;;;;;;15.37;75.08;100407.39;106146;1268;24319;-57
2022/06/04 05:19:32;;;;;;;12.20;5.50;;;;;;;15.33;75.40;100418.03;106434;1268;22531;-59
2022/06/04 05:22:03;;;;;;;14.10;6.40;;;;;;;15.29;75.77;100423.27;106219;1265;22583;-59
2022/06/04 05:24:37;;;;;;;13.80;6.90;;;;;;;15.27;76.28;100429.09;106168;1268;24549;-59
2022/06/04 05:27:08;;;;;;;12.80;5.90;;;;;;;15.23;76.69;100441.32;106331;1265;24299;-55
2022/06/04 05:29:41;;;;;;;13.40;6.30;;;;;;;15.19;76.63;100438.43;106011;1267;26613;-57
2022/06/04 05:32:13;;;;;;;12.40;5.40;;;;;;;15.18;76.86;100437.86;110105;1265;22365;-57
2022/06/04 05:34:45;;;;;;;12.60;6.20;;;;;;;15.16;77.11;100437.25;109717;1267;22538;-59
2022/06/04 05:37:17;;;;;;;15.00;5.90;;;;;;;15.14;76.86;100446.30;106297;1268;22538;-59
2022/06/04 05:39:49;;;;;;;14.30;7.50;;;;;;;15.13;77.92;100449.81;106386;1267;23819;-58
2022/06/04 05:42:21;;;;;;;17.00;6.60;;;;;;;15.08;77.53;100447.69;106176;1267;22538;-55
2022/06/04 05:44:54;;;;;;;13.70;6.30;;;;;;;15.09;77.71;100452.34;106406;1266;23433;-56
2022/06/04 05:47:26;;;;;;;15.10;6.60;;;;;;;15.08;77.91;100451.38;106306;1266;24306;-57
2022/06/04 05:49:57;;;;;;;14.50;6.70;;;;;;;15.06;78.36;100447.16;106338;1267;22617;-57
2022/06/04 05:52:30;;;;;;;14.70;6.50;;;;;;;15.05;78.18;100443.95;106308;1268;24208;-55
2022/06/04 05:55:01;;;;;;;13.80;6.70;;;;;;;15.06;78.15;100444.38;106133;1268;26841;-57
2022/06/04 05:57:33;;;;;;;14.30;7.10;;;;;;;15.07;78.39;100444.77;106435;1265;22560;-57
2022/06/04 06:00:08;;;;;;;15.00;7.30;;;;;;;15.09;78.67;100450.16;106227;1268;22544;-54
2022/06/04 06:02:40;;;;;;;18.00;7.80;;;;;;;15.14;78.34;100448.69;106423;1268;22624;-55
2022/06/04 06:05:12;;;;;;;12.60;6.20;;;;;;;15.21;78.58;100453.79;106578;1268;22519;-56
2022/06/04 06:07:44;;;;;;;19.80;7.20;;;;;;;15.29;78.74;100450.99;106289;1267;24296;-56
2022/06/04 06:10:16;;;;;;;16.80;6.70;;;;;;;15.33;78.89;100452.04;106140;1268;22553;-57
2022/06/04 06:12:48;;;;;;;17.30;6.80;;;;;;;15.35;78.83;100446.52;106409;1268;25256;-57
2022/06/04 06:15:21;;;;;;;16.30;7.30;;;;;;;15.38;78.88;100446.89;106016;1267;22534;-55
2022/06/04 06:17:54;;;;;;;16.20;7.60;;;;;;;15.41;78.77;100451.54;106172;1268;22567;-55
2022/06/04 06:20:26;;;;;;;17.70;7.00;;;;;;;15.46;78.74;100457.27;106331;1268;23518;-55
2022/06/04 06:22:58;;;;;;;16.10;7.80;;;;;;;15.51;78.79;100452.92;106238;1268;22638;-57
2022/06/04 06:25:31;;;;;;;15.90;7.50;;;;;;;15.57;78.94;100450.33;106124;1268;22531;-53
2022/06/04 06:28:02;;;;;;;15.60;7.10;;;;;;;15.62;79.35;100442.52;106374;1268;22518;-57
2022/06/04 06:30:36;;;;;;;17.40;7.20;;;;;;;15.66;78.96;100432.08;106152;1268;26411;-53
2022/06/04 06:33:08;;;;;;;16.00;8.20;;;;;;;15.73;79.07;100428.96;106137;1268;22541;-53
2022/06/04 06:35:40;;;;;;;18.50;8.80;;;;;;;15.80;79.32;100426.46;106090;1268;25668;-54
2022/06/04 06:38:12;;;;;;;18.70;9.60;;;;;;;15.87;79.53;100427.39;106498;1265;22522;-54
2022/06/04 06:40:44;;;;;;;19.00;7.90;;;;;;;15.95;79.88;100432.98;106539;1268;22528;-55
2022/06/04 06:43:16;;;;;;;17.80;8.10;;;;;;;15.99;80.01;100431.95;106151;1268;22547;-53
2022/06/04 06:45:48;;;;;;;17.00;7.40;;;;;;;16.01;79.75;100428.41;106053;1268;24250;-57
2022/06/04 06:48:21;;;;;;;14.00;7.40;;;;;;;16.02;79.87;100430.27;102126;1268;5439504;-56
2022/06/04 06:50:54;;;;;;;16.30;8.40;;;;;;;16.03;79.58;100429.80;106306;1265;22589;-56
2022/06/04 06:53:26;;;;;;;16.30;8.50;;;;;;;16.05;79.47;100433.85;106144;1268;22550;-57
2022/06/04 06:55:58;;;;;;;15.40;8.30;;;;;;;16.08;79.54;100433.14;106279;1268;22557;-56
2022/06/04 06:58:30;;;;;;;16.10;7.60;;;;;;;16.12;79.50;100433.39;106289;1268;25313;-55
2022/06/04 07:01:02;;;;;;;17.80;8.60;;;;;;;16.15;79.58;100437.70;106131;1268;24381;-55
2022/06/04 07:03:35;;;;;;;18.10;9.10;;;;;;;16.17;79.40;100439.27;106354;1268;25408;-53
2022/06/04 07:06:07;;;;;;;16.40;7.90;;;;;;;16.22;79.77;100437.54;106343;1268;22540;-54
2022/06/04 07:08:41;;;;;;;18.80;9.90;;;;;;;16.24;79.47;100437.23;106297;1268;22525;-54
2022/06/04 07:11:14;;;;;;;19.70;9.30;;;;;;;16.31;79.78;100440.64;106212;1268;22559;-57
2022/06/04 07:13:47;;;;;;;15.90;8.40;;;;;;;16.38;79.70;100442.84;105971;1265;24435;-56
2022/06/04 07:16:21;;;;;;;15.80;8.80;;;;;;;16.45;79.28;100432.91;105955;1266;22521;-55
2022/06/04 07:18:53;;;;;;;19.90;9.00;;;;;;;16.53;79.37;100433.15;105920;1265;24281;-57
2022/06/04 07:21:25;;;;;;;14.90;7.90;;;;;;;16.59;79.64;100433.71;105958;1266;22519;-54
2022/06/04 07:23:56;;;;;;;15.90;8.50;;;;;;;16.62;79.42;100433.08;105981;1265;25342;-55
2022/06/04 07:26:28;;;;;;;18.90;8.30;;;;;;;16.66;79.36;100431.59;106145;1268;50382;-58
2022/06/04 07:29:00;;;;;;;16.70;8.50;;;;;;;16.68;79.15;100427.95;106711;1271;22745;-55
2022/06/04 07:31:31;;;;;;;16.50;8.10;;;;;;;16.68;78.94;100429.84;105964;1271;22525;-56
2022/06/04 07:34:04;;;;;;;18.50;9.20;;;;;;;16.73;79.01;100432.39;105702;1270;22548;-55
2022/06/04 07:36:38;;;;;;;15.30;8.30;;;;;;;16.74;78.85;100427.25;105675;1270;22537;-57
2022/06/04 07:39:12;;;;;;;15.50;7.40;;;;;;;16.75;78.93;100423.83;106011;1270;22618;-57
2022/06/04 07:41:45;;;;;;;17.30;7.60;;;;;;;16.78;79.03;100418.11;105760;1270;24295;-56
2022/06/04 07:44:18;;;;;;;16.90;8.20;;;;;;;16.82;78.85;100419.23;105876;1271;25242;-54
2022/06/04 07:46:52;;;;;;;15.40;7.00;;;;;;;16.88;79.18;100419.40;106104;1270;22525;-55
2022/06/04 07:49:25;;;;;;;14.00;7.60;;;;;;;16.90;79.05;100417.52;105862;1271;22552;-57
2022/06/04 07:51:56;;;;;;;17.60;7.70;;;;;;;16.93;78.80;100424.63;106127;1271;22537;-55
2022/06/04 07:54:29;;;;;;;13.80;6.90;;;;;;;17.00;78.83;100428.87;106518;1270;24569;-61
2022/06/04 07:57:02;;;;;;;12.50;6.30;;;;;;;17.06;78.46;100429.34;105959;1271;22910;-56
2022/06/04 07:59:36;;;;;;;14.80;7.70;;;;;;;17.12;78.16;100430.30;105875;1270;22564;-57
2022/06/04 08:02:10;;;;;;;17.20;8.50;;;;;;;17.17;78.29;100427.51;106327;1270;22539;-57
2022/06/04 08:04:42;;;;;;;16.30;7.80;;;;;;;17.21;78.34;100430.71;105935;1271;22618;-57
2022/06/04 08:07:15;;;;;;;17.80;8.80;;;;;;;17.26;78.42;100434.95;106173;1270;22549;-57
2022/06/04 08:09:58;;;;;;;14.90;8.50;;;;;;;17.29;78.68;100431.08;106093;1271;22654;-55
2022/06/04 08:12:32;;;;;;;16.20;8.80;;;;;;;17.34;79.04;100425.67;108566;1270;22546;-56
2022/06/04 08:15:07;;;;;;;16.80;9.30;;;;;;;17.39;79.68;100421.68;107445;1271;25388;-57
2022/06/04 08:17:43;;;;;;;16.40;9.20;;;;;;;17.43;79.69;100417.09;106080;1270;22525;-57
2022/06/04 08:20:17;;;;;;;14.30;8.80;;;;;;;17.49;80.15;100413.33;105948;1270;22905;-62
2022/06/04 08:22:49;;;;;;;17.70;9.10;;;;;;;17.56;79.95;100416.54;106361;1270;24179;-59
2022/06/04 08:25:21;;;;;;;17.70;9.00;;;;;;;17.63;79.99;100415.00;105936;1271;22748;-56
2022/06/04 08:27:53;;;;;;;16.40;9.30;;;;;;;17.71;79.78;100418.74;106378;1270;70321;-55
2022/06/04 08:30:25;;;;;;;19.30;8.90;;;;;;;17.78;80.05;100419.09;105836;1270;22528;-57
2022/06/04 08:32:56;;;;;;;18.60;7.90;;;;;;;17.81;78.83;100425.19;106013;1271;24230;-56
2022/06/04 08:35:28;;;;;;;18.50;9.60;;;;;;;17.86;78.69;100440.71;106142;1271;22464;-57
2022/06/04 08:38:00;;;;;;;16.20;8.10;;;;;;;17.90;78.34;100450.73;106343;1270;22607;-58
2022/06/04 08:40:37;;;;;;;16.00;7.30;;;;;;;17.95;78.20;100450.65;106132;1271;24267;-59
2022/06/04 08:43:19;;;;;;;17.60;8.40;;;;;;;18.03;78.48;100452.54;105981;1271;25254;-60
2022/06/04 08:45:51;;;;;;;16.50;8.20;;;;;;;18.12;78.39;100451.33;108159;1270;22541;-58
2022/06/04 08:48:28;;;;;;;16.50;8.40;;;;;;;18.23;78.07;100449.96;105958;1271;22537;-56
2022/06/04 08:51:01;;;;;;;14.60;8.00;;;;;;;18.30;77.70;100458.02;106028;1271;24262;-60
2022/06/04 08:53:33;;;;;;;15.00;8.60;;;;;;;18.40;77.85;100463.52;105933;1270;22536;-59
2022/06/04 08:59:11;;;;;;;15.90;7.20;;;;;;;18.55;76.99;100460.64;105923;1270;22635;-62
2022/06/04 09:01:47;;;;;;;16.70;7.40;;;;;;;18.64;76.78;100465.89;106045;1270;22543;-61
2022/06/04 09:04:45;;;;;;;13.70;6.20;;;;;;;18.75;76.95;100469.12;105626;1271;22547;-57
2022/06/04 09:07:21;;;;;;;13.70;6.20;;;;;;;18.89;77.16;100467.07;106086;1270;22548;-56
2022/06/04 09:09:59;;;;;;;13.30;7.10;;;;;;;19.00;76.74;100464.98;105883;1270;24357;-57
2022/06/04 09:12:39;;;;;;;13.80;6.60;;;;;;;19.11;76.32;100465.41;106521;1270;25407;-59
2022/06/04 09:15:17;;;;;;;14.00;7.70;;;;;;;19.21;76.26;100468.38;106224;1271;24430;-58
2022/06/04 09:17:52;;;;;;;14.00;6.90;;;;;;;19.26;75.27;100469.86;106200;1271;24243;-57
2022/06/04 09:20:34;;;;;;;14.30;7.10;;;;;;;19.31;75.38;100473.19;105960;1271;22579;-60
2022/06/04 09:23:08;;;;;;;12.40;6.50;;;;;;;19.35;75.06;100477.34;105704;1270;22522;-59
2022/06/04 09:25:48;;;;;;;15.20;6.30;;;;;;;19.37;74.84;100481.08;106319;1271;25338;-59
2022/06/04 09:28:29;;;;;;;12.30;5.90;;;;;;;19.40;74.71;100485.81;106428;1270;42636;-58
2022/06/04 09:31:16;;;;;;;12.50;6.30;;;;;;;19.47;74.74;100494.78;106255;1271;22531;-56
2022/06/04 09:33:56;;;;;;;11.00;5.80;;;;;;;19.48;74.51;100502.24;106334;1271;25339;-60
2022/06/04 09:36:30;;;;;;;18.30;6.90;;;;;;;19.48;74.46;100505.08;105969;1271;22559;-60
2022/06/04 09:39:04;;;;;;;14.70;7.10;;;;;;;19.43;74.32;100505.70;107728;1270;22585;-59
2022/06/04 09:41:37;;;;;;;13.90;7.80;;;;;;;19.41;74.29;100507.11;105986;1271;22537;-58
2022/06/04 09:44:16;;;;;;;15.30;7.60;;;;;;;19.42;73.96;100507.63;105952;1270;26343;-60
2022/06/04 09:46:56;;;;;;;14.60;7.50;;;;;;;19.44;73.98;100508.77;105892;1271;22521;-58
2022/06/04 09:49:35;;;;;;;12.70;6.90;;;;;;;19.51;74.26;100509.25;105979;1271;25290;-60
2022/06/04 09:52:24;;;;;;;21.40;8.90;;;;;;;19.57;73.96;100510.47;106462;1271;22528;-62
2022/06/04 09:54:59;;;;;;;16.80;7.10;;;;;;;19.59;73.73;100504.41;105885;1271;22587;-61
2022/06/04 09:57:36;;;;;;;16.20;7.80;;;;;;;19.66;73.59;100496.23;106317;1271;22538;-58
2022/06/04 10:00:24;;;;;;;12.70;6.60;;;;;;;19.74;72.89;100494.88;106306;1270;23976;-61
2022/06/04 10:02:57;;;;;;;15.00;6.80;;;;;;;19.79;72.94;100499.17;106534;1271;22541;-58
2022/06/04 10:05:33;;;;;;;15.40;6.40;;;;;;;19.87;72.97;100506.11;106340;1271;22766;-61
2022/06/04 10:08:14;;;;;;;16.60;6.80;;;;;;;19.98;72.62;100517.30;106101;1271;24189;-60
2022/06/04 10:10:49;;;;;;;13.90;7.10;;;;;;;20.05;72.33;100521.92;105681;1271;22999;-59
2022/06/04 10:16:19;;;;;;;14.20;7.20;;;;;;;20.21;72.15;100524.02;105623;1271;24170;-62
2022/06/04 10:19:00;;;;;;;15.80;6.60;;;;;;;20.23;71.56;100521.41;106402;1271;22619;-60
2022/06/04 10:21:35;;;;;;;13.70;5.70;;;;;;;20.31;71.74;100525.31;106265;1268;22533;-63
2022/06/04 10:24:28;;;;;;;12.70;6.60;;;;;;;20.44;71.12;100527.00;105836;1271;25247;-59
2022/06/04 10:27:13;;;;;;;10.80;6.20;;;;;;;20.51;70.78;100518.73;105956;1271;24385;-62
2022/06/04 10:30:06;;;;;;;12.20;6.50;;;;;;;20.62;70.74;100509.02;105904;1270;44246;-59
2022/06/04 10:32:57;;;;;;;13.80;6.10;;;;;;;20.73;70.29;100502.50;106164;1271;24228;-62
2022/06/04 10:35:41;;;;;;;12.40;6.20;;;;;;;20.80;69.76;100501.82;105813;1271;22530;-58
2022/06/04 10:38:23;;;;;;;13.40;6.40;;;;;;;20.85;69.99;100504.77;105988;1271;22547;-61
2022/06/04 10:41:07;;;;;;;12.30;5.30;;;;;;;20.98;69.85;100498.27;106029;1271;25499;-61
2022/06/04 10:44:04;;;;;;;14.10;6.40;;;;;;;21.13;69.67;100497.39;105802;1271;25329;-60
2022/06/04 10:46:45;;;;;;;11.60;6.40;;;;;;;21.17;68.58;100503.30;106034;1270;22564;-60
2022/06/04 10:49:33;;;;;;;15.40;5.80;;;;;;;21.16;68.40;100503.37;106136;1270;24119;-59
2022/06/04 10:52:16;;;;;;;11.00;5.70;;;;;;;21.23;69.08;100502.59;106490;1271;24268;-62
2022/06/04 10:55:01;;;;;;;13.10;5.40;;;;;;;21.31;68.21;100510.13;105910;1271;25368;-59
2022/06/04 10:57:38;;;;;;;11.90;6.00;;;;;;;21.42;68.07;100516.06;106389;1271;22573;-61
2022/06/04 11:00:18;;;;;;;11.90;6.90;;;;;;;21.53;67.99;100516.28;106124;1271;22702;-60
2022/06/04 11:02:50;;;;;;;;;;;;;;;21.59;67.83;100522.41;106067;1271;22521;-62
2022/06/04 11:05:28;;;;;;;15.20;7.40;;;;;;;21.67;67.69;100522.33;105886;1271;25477;-59
2022/06/04 11:08:05;;;;;;;14.30;6.00;;;;;;;21.74;67.56;100525.33;105781;1271;23956;-59
2022/06/04 11:10:41;;;;;;;12.20;5.80;;;;;;;21.78;66.70;100524.73;105849;1271;22593;-62
2022/06/04 11:13:17;;;;;;;11.30;5.80;;;;;;;21.80;66.81;100530.44;106065;1271;25015;-61
2022/06/04 11:15:54;;;;;;;12.10;5.30;;;;;;;21.78;66.43;100530.23;105896;1271;26247;-59
2022/06/04 11:18:31;;;;;;;13.00;5.80;;;;;;;21.79;66.71;100528.16;105921;1271;26503;-58
2022/06/04 11:21:11;;;;;;;8.80;4.30;;;;;;;21.88;66.44;100522.88;106052;1271;22549;-59
2022/06/04 11:23:49;;;;;;;12.20;5.30;;;;;;;21.99;66.12;100522.20;105777;1271;22518;-60
2022/06/04 11:26:26;;;;;;;9.90;4.90;;;;;;;22.13;66.01;100520.54;105936;1271;25500;-58
2022/06/04 11:29:00;;;;;;;12.40;5.90;;;;;;;22.26;66.14;100527.37;105783;1271;25387;-58
2022/06/04 11:31:44;;;;;;;10.90;5.00;;;;;;;22.38;66.42;100525.06;106453;1271;23215;-56
2022/06/04 11:34:35;;;;;;;9.50;4.40;;;;;;;22.52;65.68;100529.36;106584;1271;24260;-58
2022/06/04 11:37:17;;;;;;;8.60;3.70;;;;;;;22.62;64.73;100528.30;106078;1271;22619;-58
2022/06/04 11:40:08;;;;;;;8.60;3.40;;;;;;;22.63;63.94;100529.98;106098;1271;25315;-58
2022/06/04 11:42:53;;;;;;;12.70;4.90;;;;;;;22.67;64.24;100523.83;105796;1271;25519;-60
2022/06/04 11:45:50;;;;;;;10.20;3.60;;;;;;;22.73;63.66;100531.70;106023;1271;22532;-58
2022/06/04 11:48:37;;;;;;;9.80;4.30;;;;;;;22.70;64.09;100526.28;106156;1271;22529;-59
2022/06/04 11:51:28;;;;;;;9.20;4.40;;;;;;;22.78;63.65;100526.53;106168;1271;25859;-58
2022/06/04 11:54:23;;;;;;;10.10;3.60;;;;;;;22.80;63.12;100523.48;105869;1271;25444;-58
2022/06/04 11:57:02;;;;;;;8.50;3.80;;;;;;;22.72;62.43;100517.80;105882;1270;22574;-58
2022/06/04 11:59:48;;;;;;;8.70;4.00;;;;;;;22.65;62.81;100518.92;106016;1271;22588;-59
2022/06/04 12:02:25;;;;;;;7.40;2.40;;;;;;;22.73;62.38;100521.64;106274;1271;23062;-59
2022/06/04 12:05:06;;;;;;;6.00;2.40;;;;;;;22.77;61.30;100523.91;106079;1270;22605;-59